createdAt,value
2015-11-03T00:00:01.439Z,15.66
2015-11-03T00:00:13.783Z,15.85
2015-11-03T00:00:26.145Z,15.85
2015-11-03T00:00:38.566Z,16.04
2015-11-03T00:00:50.910Z,15.76
2015-11-03T00:01:03.395Z,15.85
2015-11-03T00:01:15.754Z,15.85
2015-11-03T00:01:27.429Z,16.14
2015-11-03T00:01:39.788Z,16.04
2015-11-03T00:01:52.116Z,16.04
2015-11-03T00:02:04.444Z,16.04
2015-11-03T00:02:16.773Z,16.04
2015-11-03T00:02:29.103Z,15.85
2015-11-03T00:02:41.451Z,16.14
2015-11-03T00:02:53.623Z,16.04
2015-11-03T00:03:05.967Z,15.76
2015-11-03T00:03:18.154Z,15.95
2015-11-03T00:03:30.517Z,15.85
2015-11-03T00:03:42.907Z,15.95
2015-11-03T00:03:55.267Z,15.94
2015-11-03T00:04:07.611Z,15.84
2015-11-03T00:04:19.954Z,16.04
2015-11-03T00:04:32.302Z,15.95
2015-11-03T00:04:44.630Z,15.75
2015-11-03T00:04:56.974Z,15.94
2015-11-03T00:05:09.286Z,15.95
2015-11-03T00:05:21.661Z,15.95
2015-11-03T00:05:33.992Z,16.14
2015-11-03T00:05:46.351Z,15.85
2015-11-03T00:05:58.710Z,15.76
2015-11-03T00:06:11.038Z,15.95
2015-11-03T00:06:23.382Z,16.04
2015-11-03T00:06:35.698Z,15.95
2015-11-03T00:06:48.041Z,15.95
2015-11-03T00:07:00.370Z,15.95
2015-11-03T00:07:12.713Z,15.95
2015-11-03T00:07:25.057Z,16.04
2015-11-03T00:07:37.418Z,15.85
2015-11-03T00:07:49.809Z,15.85
2015-11-03T00:08:02.153Z,15.94
2015-11-03T00:08:14.481Z,16.14
2015-11-03T00:08:26.809Z,15.85
2015-11-03T00:08:39.140Z,15.85
2015-11-03T00:08:51.468Z,15.85
2015-11-03T00:09:03.812Z,15.85
2015-11-03T00:09:16.140Z,15.85
2015-11-03T00:09:28.484Z,15.85
2015-11-03T00:09:40.831Z,15.56
2015-11-03T00:09:53.190Z,15.66
2015-11-03T00:10:05.549Z,15.66
2015-11-03T00:10:17.909Z,15.85
2015-11-03T00:10:30.237Z,15.66
2015-11-03T00:10:42.567Z,15.28
2015-11-03T00:10:54.895Z,15.66
2015-11-03T00:11:07.223Z,15.85
2015-11-03T00:11:19.567Z,15.76
2015-11-03T00:11:31.911Z,15.66
2015-11-03T00:11:44.259Z,15.47
2015-11-03T00:11:56.634Z,15.56
2015-11-03T00:12:09.024Z,15.76
2015-11-03T00:12:21.430Z,15.85
2015-11-03T00:12:33.759Z,15.76
2015-11-03T00:12:46.104Z,15.84
2015-11-03T00:12:58.432Z,15.85
2015-11-03T00:13:10.761Z,15.85
2015-11-03T00:13:23.089Z,15.84
2015-11-03T00:13:35.417Z,15.76
2015-11-03T00:13:47.732Z,15.84
2015-11-03T00:14:00.076Z,15.76
2015-11-03T00:14:12.420Z,15.76
2015-11-03T00:14:24.810Z,15.66
2015-11-03T00:14:37.185Z,15.47
2015-11-03T00:14:49.562Z,15.66
2015-11-03T00:15:01.937Z,15.95
2015-11-03T00:15:14.266Z,15.85
2015-11-03T00:15:25.875Z,15.75
2015-11-03T00:15:38.203Z,15.56
2015-11-03T00:15:50.535Z,15.76
2015-11-03T00:16:02.863Z,15.75
2015-11-03T00:16:15.191Z,15.56
2015-11-03T00:16:27.520Z,15.66
2015-11-03T00:16:39.848Z,15.56
2015-11-03T00:16:52.194Z,15.28
2015-11-03T00:17:04.554Z,15.56
2015-11-03T00:17:16.913Z,15.56
2015-11-03T00:17:29.226Z,15.28
2015-11-03T00:17:41.538Z,15.28
2015-11-03T00:17:53.884Z,15.56
2015-11-03T00:18:06.196Z,15.37
2015-11-03T00:18:18.540Z,15.56
2015-11-03T00:18:30.884Z,15.66
2015-11-03T00:18:43.228Z,15.75
2015-11-03T00:18:55.589Z,15.66
2015-11-03T00:19:07.964Z,15.66
2015-11-03T00:19:20.339Z,15.66
2015-11-03T00:19:32.652Z,15.56
2015-11-03T00:19:44.995Z,15.56
2015-11-03T00:19:57.326Z,15.56
2015-11-03T00:20:09.701Z,15.84
2015-11-03T00:20:22.076Z,15.94
2015-11-03T00:20:34.405Z,15.94
2015-11-03T00:20:46.717Z,15.75
2015-11-03T00:20:59.065Z,15.75
2015-11-03T00:21:11.424Z,15.75
2015-11-03T00:21:23.784Z,16.03
2015-11-03T00:21:36.143Z,15.84
2015-11-03T00:21:48.473Z,15.94
2015-11-03T00:22:00.801Z,15.84
2015-11-03T00:22:13.129Z,15.84
2015-11-03T00:22:25.473Z,15.84
2015-11-03T00:22:37.817Z,15.84
2015-11-03T00:22:50.164Z,15.75
2015-11-03T00:23:02.523Z,16.13
2015-11-03T00:23:14.898Z,15.75
2015-11-03T00:23:27.226Z,15.94
2015-11-03T00:23:39.554Z,15.75
2015-11-03T00:23:51.901Z,15.94
2015-11-03T00:24:04.229Z,15.94
2015-11-03T00:24:16.573Z,15.94
2015-11-03T00:24:28.917Z,15.94
2015-11-03T00:24:40.542Z,16.03
2015-11-03T00:24:52.873Z,16.03
2015-11-03T00:25:05.216Z,15.94
2015-11-03T00:25:17.576Z,15.94
2015-11-03T00:25:29.935Z,15.84
2015-11-03T00:25:42.310Z,15.75
2015-11-03T00:25:54.686Z,15.94
2015-11-03T00:26:07.030Z,15.84
2015-11-03T00:26:19.358Z,15.84
2015-11-03T00:26:31.702Z,15.94
2015-11-03T00:26:44.030Z,15.75
2015-11-03T00:26:56.378Z,15.84
2015-11-03T00:27:08.706Z,15.66
2015-11-03T00:27:21.050Z,15.84
2015-11-03T00:27:33.393Z,15.75
2015-11-03T00:27:45.737Z,15.84
2015-11-03T00:27:58.098Z,15.94
2015-11-03T00:28:10.489Z,16.13
2015-11-03T00:28:22.833Z,15.84
2015-11-03T00:28:35.145Z,15.84
2015-11-03T00:28:47.473Z,15.84
2015-11-03T00:28:59.805Z,16.41
2015-11-03T00:29:12.148Z,15.94
2015-11-03T00:29:24.492Z,16.32
2015-11-03T00:29:36.820Z,16.22
2015-11-03T00:29:49.164Z,16.22
2015-11-03T00:30:01.511Z,16.22
2015-11-03T00:30:13.870Z,16.22
2015-11-03T00:30:26.229Z,15.94
2015-11-03T00:30:38.620Z,16.32
2015-11-03T00:30:50.948Z,16.22
2015-11-03T00:31:03.294Z,16.32
2015-11-03T00:31:15.638Z,16.32
2015-11-03T00:31:27.966Z,16.32
2015-11-03T00:31:40.294Z,16.13
2015-11-03T00:31:52.638Z,16.32
2015-11-03T00:32:04.969Z,15.94
2015-11-03T00:32:17.313Z,16.13
2015-11-03T00:32:29.672Z,16.03
2015-11-03T00:32:42.031Z,16.13
2015-11-03T00:32:54.406Z,16.13
2015-11-03T00:33:06.768Z,16.13
2015-11-03T00:33:19.158Z,16.03
2015-11-03T00:33:31.486Z,16.13
2015-11-03T00:33:43.830Z,16.03
2015-11-03T00:33:56.161Z,16.03
2015-11-03T00:34:08.489Z,16.13
2015-11-03T00:34:20.833Z,15.94
2015-11-03T00:34:33.161Z,16.03
2015-11-03T00:34:45.489Z,15.94
2015-11-03T00:34:57.837Z,16.32
2015-11-03T00:35:10.181Z,16.41
2015-11-03T00:35:22.540Z,16.22
2015-11-03T00:35:34.900Z,16.13
2015-11-03T00:35:47.275Z,16.41
2015-11-03T00:35:59.620Z,16.13
2015-11-03T00:36:11.949Z,16.41
2015-11-03T00:36:24.277Z,16.41
2015-11-03T00:36:36.605Z,16.32
2015-11-03T00:36:48.214Z,16.41
2015-11-03T00:37:00.545Z,16.13
2015-11-03T00:37:12.873Z,16.41
2015-11-03T00:37:25.202Z,16.13
2015-11-03T00:37:37.561Z,16.13
2015-11-03T00:37:49.889Z,16.51
2015-11-03T00:38:02.283Z,16.41
2015-11-03T00:38:14.642Z,16.79
2015-11-03T00:38:27.001Z,16.6
2015-11-03T00:38:39.361Z,16.6
2015-11-03T00:38:51.033Z,16.89
2015-11-03T00:39:03.378Z,16.52
2015-11-03T00:39:15.722Z,16.6
2015-11-03T00:39:28.050Z,16.7
2015-11-03T00:39:40.378Z,16.6
2015-11-03T00:39:52.707Z,16.8
2015-11-03T00:40:05.022Z,16.89
2015-11-03T00:40:17.350Z,16.99
2015-11-03T00:40:29.694Z,17.08
2015-11-03T00:40:42.038Z,16.89
2015-11-03T00:40:54.397Z,16.89
2015-11-03T00:41:06.758Z,16.79
2015-11-03T00:41:19.118Z,17.27
2015-11-03T00:41:31.446Z,17.18
2015-11-03T00:41:43.758Z,17.08
2015-11-03T00:41:56.087Z,17.08
2015-11-03T00:42:08.419Z,16.89
2015-11-03T00:42:20.747Z,16.99
2015-11-03T00:42:33.075Z,16.89
2015-11-03T00:42:45.403Z,16.52
2015-11-03T00:42:57.747Z,16.42
2015-11-03T00:43:10.094Z,16.61
2015-11-03T00:43:22.453Z,16.52
2015-11-03T00:43:34.797Z,16.8
2015-11-03T00:43:47.125Z,16.89
2015-11-03T00:43:59.437Z,16.89
2015-11-03T00:44:11.767Z,16.89
2015-11-03T00:44:24.096Z,17.08
2015-11-03T00:44:36.439Z,17.27
2015-11-03T00:44:48.783Z,17.18
2015-11-03T00:45:01.127Z,17.27
2015-11-03T00:45:13.488Z,17.27
2015-11-03T00:45:25.863Z,17.08
2015-11-03T00:45:38.191Z,16.99
2015-11-03T00:45:50.519Z,17.08
2015-11-03T00:46:02.848Z,17.08
2015-11-03T00:46:15.180Z,17.08
2015-11-03T00:46:27.523Z,17.08
2015-11-03T00:46:39.852Z,16.99
2015-11-03T00:46:52.180Z,17.75
2015-11-03T00:47:04.367Z,17.66
2015-11-03T00:47:16.713Z,17.47
2015-11-03T00:47:29.072Z,17.75
2015-11-03T00:47:41.416Z,17.66
2015-11-03T00:47:52.916Z,17.66
2015-11-03T00:48:05.244Z,17.66
2015-11-03T00:48:17.591Z,17.47
2015-11-03T00:48:29.763Z,17.47
2015-11-03T00:48:42.075Z,17.47
2015-11-03T00:48:54.403Z,17.66
2015-11-03T00:49:06.732Z,17.56
2015-11-03T00:49:19.063Z,17.47
2015-11-03T00:49:31.406Z,17.66
2015-11-03T00:49:43.750Z,17.47
2015-11-03T00:49:56.110Z,17.37
2015-11-03T00:50:08.469Z,17.66
2015-11-03T00:50:20.846Z,17.47
2015-11-03T00:50:33.190Z,17.66
2015-11-03T00:50:45.518Z,17.37
2015-11-03T00:50:57.846Z,17.08
2015-11-03T00:51:10.174Z,17.18
2015-11-03T00:51:21.802Z,17.08
2015-11-03T00:51:34.130Z,17.47
2015-11-03T00:51:46.458Z,17.37
2015-11-03T00:51:58.786Z,17.56
2015-11-03T00:52:11.115Z,17.37
2015-11-03T00:52:23.289Z,17.37
2015-11-03T00:52:35.633Z,17.75
2015-11-03T00:52:47.977Z,17.85
2015-11-03T00:53:00.336Z,17.94
2015-11-03T00:53:12.649Z,17.94
2015-11-03T00:53:24.980Z,17.75
2015-11-03T00:53:37.308Z,17.75
2015-11-03T00:53:49.636Z,18.04
2015-11-03T00:54:01.980Z,18.23
2015-11-03T00:54:14.308Z,18.23
2015-11-03T00:54:26.623Z,18.32
2015-11-03T00:54:38.966Z,18.32
2015-11-03T00:54:51.310Z,18.32
2015-11-03T00:55:03.669Z,18.32
2015-11-03T00:55:15.857Z,18.23
2015-11-03T00:55:28.173Z,18.51
2015-11-03T00:55:40.502Z,18.32
2015-11-03T00:55:52.830Z,18.41
2015-11-03T00:56:05.158Z,18.41
2015-11-03T00:56:17.502Z,18.32
2015-11-03T00:56:29.832Z,18.51
2015-11-03T00:56:42.144Z,18.32
2015-11-03T00:56:54.504Z,18.51
2015-11-03T00:57:06.847Z,18.41
2015-11-03T00:57:19.207Z,18.41
2015-11-03T00:57:31.428Z,18.41
2015-11-03T00:57:43.788Z,18.32
2015-11-03T00:57:56.178Z,18.13
2015-11-03T00:58:08.507Z,17.75
2015-11-03T00:58:20.835Z,17.85
2015-11-03T00:58:33.166Z,17.94
2015-11-03T00:58:45.494Z,18.02
2015-11-03T00:58:57.822Z,17.66
2015-11-03T00:59:10.150Z,17.94
2015-11-03T00:59:22.478Z,17.66
2015-11-03T00:59:34.824Z,17.75
2015-11-03T00:59:47.168Z,17.56
2015-11-03T00:59:59.512Z,17.36
2015-11-03T01:00:11.871Z,17.47
2015-11-03T01:00:24.230Z,17.56
2015-11-03T01:00:36.561Z,17.46
2015-11-03T01:00:48.890Z,17.46
2015-11-03T01:01:01.233Z,17.17
2015-11-03T01:01:13.561Z,17.17
2015-11-03T01:01:25.890Z,17.17
2015-11-03T01:01:38.220Z,17.37
2015-11-03T01:01:50.563Z,17.27
2015-11-03T01:02:02.907Z,17.17
2015-11-03T01:02:15.267Z,17.17
2015-11-03T01:02:27.626Z,17.36
2015-11-03T01:02:39.958Z,17.27
2015-11-03T01:02:52.286Z,17.46
2015-11-03T01:03:04.630Z,17.46
2015-11-03T01:03:16.942Z,17.46
2015-11-03T01:03:29.271Z,16.98
2015-11-03T01:03:41.617Z,17.08
2015-11-03T01:03:53.789Z,17.36
2015-11-03T01:04:05.977Z,16.98
2015-11-03T01:04:18.305Z,17.08
2015-11-03T01:04:30.508Z,17.17
2015-11-03T01:04:42.869Z,17.27
2015-11-03T01:04:55.197Z,17.17
2015-11-03T01:05:06.807Z,17.27
2015-11-03T01:05:19.135Z,17.27
2015-11-03T01:05:31.463Z,16.79
2015-11-03T01:05:43.794Z,17.08
2015-11-03T01:05:56.122Z,16.98
2015-11-03T01:06:08.482Z,16.98
2015-11-03T01:06:20.825Z,16.98
2015-11-03T01:06:33.169Z,16.89
2015-11-03T01:06:45.515Z,16.89
2015-11-03T01:06:57.874Z,16.89
2015-11-03T01:07:10.234Z,17.08
2015-11-03T01:07:22.593Z,16.79
2015-11-03T01:07:34.906Z,16.89
2015-11-03T01:07:47.237Z,17.17
2015-11-03T01:07:59.565Z,17.17
2015-11-03T01:08:11.909Z,16.98
2015-11-03T01:08:24.221Z,17.27
2015-11-03T01:08:36.549Z,16.98
2015-11-03T01:08:48.880Z,16.98
2015-11-03T01:09:01.224Z,16.98
2015-11-03T01:09:13.552Z,16.98
2015-11-03T01:09:25.927Z,16.79
2015-11-03T01:09:38.287Z,17.27
2015-11-03T01:09:49.914Z,17.36
2015-11-03T01:10:02.242Z,17.27
2015-11-03T01:10:14.554Z,17.27
2015-11-03T01:10:26.882Z,17.27
2015-11-03T01:10:39.210Z,17.17
2015-11-03T01:10:51.542Z,17.27
2015-11-03T01:11:03.854Z,16.89
2015-11-03T01:11:16.198Z,17.08
2015-11-03T01:11:28.542Z,17.08
2015-11-03T01:11:40.901Z,17.27
2015-11-03T01:11:52.545Z,17.46
2015-11-03T01:12:04.904Z,17.17
2015-11-03T01:12:17.138Z,17.27
2015-11-03T01:12:29.513Z,17.27
2015-11-03T01:12:41.826Z,17.17
2015-11-03T01:12:54.173Z,17.27
2015-11-03T01:13:06.485Z,16.89
2015-11-03T01:13:18.813Z,17.08
2015-11-03T01:13:31.157Z,17.08
2015-11-03T01:13:43.469Z,17.08
2015-11-03T01:13:55.816Z,17.27
2015-11-03T01:14:08.144Z,17.27
2015-11-03T01:14:20.488Z,17.37
2015-11-03T01:14:32.910Z,17.18
2015-11-03T01:14:45.129Z,17.27
2015-11-03T01:14:57.490Z,17.27
2015-11-03T01:15:09.803Z,16.8
2015-11-03T01:15:22.146Z,16.89
2015-11-03T01:15:34.474Z,16.99
2015-11-03T01:15:46.803Z,16.99
2015-11-03T01:15:59.135Z,17.08
2015-11-03T01:16:11.463Z,16.8
2015-11-03T01:16:23.791Z,16.99
2015-11-03T01:16:35.978Z,16.99
2015-11-03T01:16:48.322Z,16.89
2015-11-03T01:17:00.699Z,16.8
2015-11-03T01:17:13.074Z,16.71
2015-11-03T01:17:25.402Z,16.52
2015-11-03T01:17:37.012Z,16.61
2015-11-03T01:17:49.340Z,16.52
2015-11-03T01:18:01.671Z,16.8
2015-11-03T01:18:14.015Z,16.8
2015-11-03T01:18:26.343Z,16.89
2015-11-03T01:18:38.687Z,16.99
2015-11-03T01:18:51.062Z,16.42
2015-11-03T01:19:03.439Z,16.52
2015-11-03T01:19:15.798Z,16.61
2015-11-03T01:19:28.157Z,16.61
2015-11-03T01:19:40.485Z,16.6
2015-11-03T01:19:52.814Z,16.52
2015-11-03T01:20:05.145Z,16.52
2015-11-03T01:20:17.457Z,16.71
2015-11-03T01:20:29.785Z,16.52
2015-11-03T01:20:42.113Z,16.61
2015-11-03T01:20:54.445Z,16.52
2015-11-03T01:21:06.788Z,16.7
2015-11-03T01:21:18.413Z,16.52
2015-11-03T01:21:30.757Z,16.51
2015-11-03T01:21:43.116Z,16.51
2015-11-03T01:21:55.478Z,16.89
2015-11-03T01:22:07.853Z,16.6
2015-11-03T01:22:20.165Z,16.51
2015-11-03T01:22:32.493Z,16.6
2015-11-03T01:23:13.451Z,16.7
2015-11-03T01:23:25.904Z,16.6
2015-11-03T01:23:38.232Z,16.52
2015-11-03T01:23:50.576Z,16.79
2015-11-03T01:24:02.919Z,16.89
2015-11-03T01:24:15.297Z,16.89
2015-11-03T01:24:27.657Z,16.89
2015-11-03T01:24:40.000Z,16.79
2015-11-03T01:24:52.329Z,16.41
2015-11-03T01:25:04.657Z,16.32
2015-11-03T01:25:16.987Z,16.51
2015-11-03T01:25:29.315Z,16.51
2015-11-03T01:25:41.659Z,16.7
2015-11-03T01:25:53.987Z,16.6
2015-11-03T01:26:06.174Z,16.6
2015-11-03T01:26:18.521Z,16.7
2015-11-03T01:26:30.865Z,16.51
2015-11-03T01:26:43.224Z,16.6
2015-11-03T01:26:55.568Z,16.6
2015-11-03T01:27:07.880Z,16.6
2015-11-03T01:27:20.196Z,16.6
2015-11-03T01:27:32.524Z,16.6
2015-11-03T01:27:44.852Z,16.6
2015-11-03T01:27:57.165Z,16.6
2015-11-03T01:28:09.493Z,16.13
2015-11-03T01:28:21.840Z,16.22
2015-11-03T01:28:34.168Z,16.22
2015-11-03T01:28:46.511Z,16.13
2015-11-03T01:28:58.871Z,16.32
2015-11-03T01:29:11.230Z,16.13
2015-11-03T01:29:23.560Z,16.22
2015-11-03T01:29:35.904Z,16.03
2015-11-03T01:29:48.232Z,16.13
2015-11-03T01:30:00.560Z,16.22
2015-11-03T01:30:12.888Z,16.03
2015-11-03T01:30:25.220Z,16.32
2015-11-03T01:30:37.563Z,16.7
2015-11-03T01:30:49.891Z,16.6
2015-11-03T01:31:02.235Z,16.51
2015-11-03T01:31:14.595Z,16.41
2015-11-03T01:31:26.973Z,16.7
2015-11-03T01:31:39.160Z,16.6
2015-11-03T01:31:51.488Z,16.6
2015-11-03T01:32:03.098Z,16.51
2015-11-03T01:32:15.441Z,16.6
2015-11-03T01:32:27.772Z,16.89
2015-11-03T01:32:40.101Z,16.79
2015-11-03T01:32:52.476Z,16.89
2015-11-03T01:33:04.819Z,16.89
2015-11-03T01:33:17.163Z,16.98
2015-11-03T01:33:29.493Z,16.98
2015-11-03T01:33:41.884Z,16.6
2015-11-03T01:33:54.103Z,16.41
2015-11-03T01:34:06.462Z,16.7
2015-11-03T01:34:18.774Z,16.6
2015-11-03T01:34:31.121Z,16.6
2015-11-03T01:34:43.449Z,16.6
2015-11-03T01:34:55.793Z,16.51
2015-11-03T01:35:08.106Z,16.51
2015-11-03T01:35:20.449Z,16.89
2015-11-03T01:35:32.765Z,16.98
2015-11-03T01:35:45.109Z,16.98
2015-11-03T01:35:57.437Z,16.98
2015-11-03T01:36:09.796Z,16.79
2015-11-03T01:36:21.999Z,17.27
2015-11-03T01:36:34.393Z,17.08
2015-11-03T01:36:46.752Z,17.27
2015-11-03T01:36:58.362Z,17.36
2015-11-03T01:37:10.690Z,17.27
2015-11-03T01:37:23.002Z,17.08
2015-11-03T01:37:35.332Z,17.08
2015-11-03T01:37:47.676Z,17.46
2015-11-03T01:38:00.004Z,17.65
2015-11-03T01:38:12.332Z,17.46
2015-11-03T01:38:24.676Z,17.36
2015-11-03T01:38:37.023Z,17.55
2015-11-03T01:38:49.398Z,17.46
2015-11-03T01:39:01.742Z,17.65
2015-11-03T01:39:14.132Z,17.65
2015-11-03T01:39:26.460Z,17.46
2015-11-03T01:39:38.791Z,17.36
2015-11-03T01:39:51.120Z,17.08
2015-11-03T01:40:03.448Z,17.08
2015-11-03T01:40:15.760Z,17.08
2015-11-03T01:40:28.088Z,17.08
2015-11-03T01:40:40.419Z,17.17
2015-11-03T01:40:52.779Z,17.27
2015-11-03T01:41:05.123Z,17.27
2015-11-03T01:41:17.482Z,17.17
2015-11-03T01:41:29.810Z,17.27
2015-11-03T01:41:42.141Z,17.27
2015-11-03T01:41:54.469Z,17.27
2015-11-03T01:42:06.797Z,17.27
2015-11-03T01:42:19.126Z,17.17
2015-11-03T01:42:31.469Z,17.17
2015-11-03T01:42:43.799Z,17.46
2015-11-03T01:42:55.440Z,17.08
2015-11-03T01:43:07.815Z,17.17
2015-11-03T01:43:20.143Z,17.17
2015-11-03T01:43:32.471Z,17.27
2015-11-03T01:43:44.818Z,17.17
2015-11-03T01:43:57.146Z,17.27
2015-11-03T01:44:09.490Z,17.46
2015-11-03T01:44:21.865Z,17.55
2015-11-03T01:44:34.209Z,17.55
2015-11-03T01:44:46.571Z,17.27
2015-11-03T01:44:58.946Z,17.74
2015-11-03T01:45:11.321Z,17.65
2015-11-03T01:45:22.962Z,17.65
2015-11-03T01:45:35.290Z,17.93
2015-11-03T01:45:47.604Z,17.74
2015-11-03T01:45:59.932Z,17.74
2015-11-03T01:46:12.261Z,17.74
2015-11-03T01:46:24.589Z,17.65
2015-11-03T01:46:36.917Z,17.74
2015-11-03T01:46:49.264Z,18.02
2015-11-03T01:47:01.623Z,17.93
2015-11-03T01:47:13.967Z,18.5
2015-11-03T01:47:26.342Z,18.22
2015-11-03T01:47:38.670Z,18.5
2015-11-03T01:47:51.017Z,18.41
2015-11-03T01:48:03.329Z,18.22
2015-11-03T01:48:15.657Z,18.22
2015-11-03T01:48:28.001Z,18.12
2015-11-03T01:48:40.345Z,18.31
2015-11-03T01:48:52.691Z,18.41
2015-11-03T01:49:04.707Z,18.41
2015-11-03T01:49:17.066Z,18.31
2015-11-03T01:49:29.395Z,18.31
2015-11-03T01:49:41.723Z,18.22
2015-11-03T01:49:54.053Z,18.22
2015-11-03T01:50:06.397Z,18.12
2015-11-03T01:50:18.725Z,18.22
2015-11-03T01:50:31.053Z,18.41
2015-11-03T01:50:43.365Z,18.41
2015-11-03T01:50:55.712Z,18.22
2015-11-03T01:51:08.056Z,18.12
2015-11-03T01:51:20.400Z,17.55
2015-11-03T01:51:32.759Z,17.74
2015-11-03T01:51:45.134Z,17.65
2015-11-03T01:51:57.449Z,17.65
2015-11-03T01:52:09.778Z,17.93
2015-11-03T01:52:22.106Z,17.93
2015-11-03T01:52:34.278Z,17.83
2015-11-03T01:52:46.621Z,17.74
2015-11-03T01:52:58.951Z,17.65
2015-11-03T01:53:11.280Z,17.65
2015-11-03T01:53:23.623Z,17.65
2015-11-03T01:53:35.967Z,17.46
2015-11-03T01:53:48.326Z,17.65
2015-11-03T01:54:00.704Z,17.55
2015-11-03T01:54:13.064Z,17.27
2015-11-03T01:54:25.408Z,17.27
2015-11-03T01:54:37.736Z,17.27
2015-11-03T01:54:49.908Z,17.46
2015-11-03T01:55:01.536Z,17.65
2015-11-03T01:55:13.864Z,17.74
2015-11-03T01:55:26.192Z,17.65
2015-11-03T01:55:38.520Z,17.74
2015-11-03T01:55:50.864Z,17.55
2015-11-03T01:56:03.194Z,17.75
2015-11-03T01:56:15.538Z,18.02
2015-11-03T01:56:27.913Z,17.83
2015-11-03T01:56:40.256Z,17.74
2015-11-03T01:56:52.604Z,18.02
2015-11-03T01:57:04.948Z,18.22
2015-11-03T01:57:17.276Z,18.31
2015-11-03T01:57:29.620Z,18.31
2015-11-03T01:57:41.932Z,18.13
2015-11-03T01:57:54.107Z,18.22
2015-11-03T01:58:06.435Z,17.94
2015-11-03T01:58:18.779Z,18.12
2015-11-03T01:58:31.123Z,18.32
2015-11-03T01:58:43.498Z,18.51
2015-11-03T01:58:55.828Z,18.79
2015-11-03T01:59:08.156Z,18.7
2015-11-03T01:59:20.500Z,19.27
2015-11-03T01:59:32.828Z,18.98
2015-11-03T01:59:45.140Z,18.89
2015-11-03T01:59:56.768Z,19.08
2015-11-03T02:00:09.096Z,18.79
2015-11-03T02:00:21.425Z,19.18
2015-11-03T02:00:47.940Z,18.98
2015-11-03T02:01:00.286Z,18.89
2015-11-03T02:01:12.645Z,18.98
2015-11-03T02:01:24.989Z,18.89
2015-11-03T02:01:37.317Z,18.89
2015-11-03T02:01:49.645Z,18.89
2015-11-03T02:02:01.961Z,19.08
2015-11-03T02:02:14.273Z,19.08
2015-11-03T02:02:26.461Z,19.18
2015-11-03T02:02:38.773Z,18.79
2015-11-03T02:02:51.117Z,18.98
2015-11-03T02:03:03.448Z,18.6
2015-11-03T02:03:15.808Z,18.7
2015-11-03T02:03:28.198Z,18.6
2015-11-03T02:03:40.573Z,18.41
2015-11-03T02:03:52.917Z,18.32
2015-11-03T02:04:05.248Z,18.13
2015-11-03T02:04:17.576Z,18.13
2015-11-03T02:04:29.904Z,18.23
2015-11-03T02:04:42.248Z,18.23
2015-11-03T02:04:54.592Z,18.13
2015-11-03T02:05:06.906Z,17.94
2015-11-03T02:05:19.266Z,18.32
2015-11-03T02:05:31.594Z,18.13
2015-11-03T02:05:43.938Z,18.13
2015-11-03T02:05:56.313Z,18.13
2015-11-03T02:06:08.675Z,18.13
2015-11-03T02:06:21.019Z,18.23
2015-11-03T02:06:33.347Z,18.23
2015-11-03T02:06:45.675Z,18.32
2015-11-03T02:06:58.034Z,18.51
2015-11-03T02:07:10.365Z,18.41
2015-11-03T02:07:22.709Z,18.23
2015-11-03T02:07:35.037Z,17.66
2015-11-03T02:07:47.365Z,17.66
2015-11-03T02:07:59.709Z,17.85
2015-11-03T02:08:12.056Z,18.04
2015-11-03T02:08:24.431Z,17.85
2015-11-03T02:08:36.759Z,17.85
2015-11-03T02:08:49.087Z,17.75
2015-11-03T02:09:01.415Z,17.75
2015-11-03T02:09:13.745Z,17.66
2015-11-03T02:09:25.917Z,17.85
2015-11-03T02:09:38.245Z,17.85
2015-11-03T02:09:50.620Z,17.56
2015-11-03T02:10:02.949Z,17.66
2015-11-03T02:10:15.311Z,17.56
2015-11-03T02:10:27.670Z,17.85
2015-11-03T02:10:40.045Z,17.56
2015-11-03T02:10:52.405Z,17.47
2015-11-03T02:11:04.748Z,17.66
2015-11-03T02:11:17.080Z,17.56
2015-11-03T02:11:29.423Z,17.56
2015-11-03T02:11:41.736Z,17.47
2015-11-03T02:11:54.095Z,17.27
2015-11-03T02:12:06.423Z,17.27
2015-11-03T02:12:18.769Z,17.47
2015-11-03T02:12:31.113Z,17.47
2015-11-03T02:12:43.457Z,17.37
2015-11-03T02:12:55.816Z,17.37
2015-11-03T02:13:08.207Z,17.75
2015-11-03T02:13:20.539Z,17.56
2015-11-03T02:13:32.867Z,17.75
2015-11-03T02:13:45.211Z,17.66
2015-11-03T02:13:57.539Z,17.47
2015-11-03T02:14:10.132Z,17.75
2015-11-03T02:14:22.494Z,17.66
2015-11-03T02:14:34.916Z,17.66
2015-11-03T02:14:47.228Z,17.85
2015-11-03T02:14:59.556Z,17.85
2015-11-03T02:15:11.872Z,17.75
2015-11-03T02:15:24.200Z,17.75
2015-11-03T02:15:36.528Z,17.75
2015-11-03T02:15:48.856Z,17.66
2015-11-03T02:16:01.200Z,17.56
2015-11-03T02:16:13.547Z,17.27
2015-11-03T02:16:25.875Z,17.27
2015-11-03T02:16:37.531Z,17.37
2015-11-03T02:16:49.890Z,17.47
2015-11-03T02:17:01.515Z,17.27
2015-11-03T02:17:13.140Z,17.56
2015-11-03T02:17:25.503Z,17.66
2015-11-03T02:17:37.847Z,17.08
2015-11-03T02:17:49.503Z,17.08
2015-11-03T02:18:01.831Z,17.08
2015-11-03T02:18:14.159Z,17.27
2015-11-03T02:18:26.489Z,17.18
2015-11-03T02:18:38.833Z,17.27
2015-11-03T02:18:51.161Z,17.27
2015-11-03T02:19:03.489Z,17.08
2015-11-03T02:19:15.833Z,17.18
2015-11-03T02:19:28.180Z,17.27
2015-11-03T02:19:40.555Z,17.27
2015-11-03T02:19:52.898Z,17.27
2015-11-03T02:20:05.227Z,17.37
2015-11-03T02:20:17.555Z,17.18
2015-11-03T02:20:29.901Z,17.37
2015-11-03T02:20:42.230Z,17.08
2015-11-03T02:20:54.558Z,17.18
2015-11-03T02:21:06.886Z,17.27
2015-11-03T02:21:19.214Z,17.27
2015-11-03T02:21:31.560Z,17.27
2015-11-03T02:21:43.888Z,17.37
2015-11-03T02:21:56.247Z,17.37
2015-11-03T02:22:07.888Z,17.27
2015-11-03T02:22:20.278Z,17.27
2015-11-03T02:22:32.610Z,17.27
2015-11-03T02:22:44.938Z,16.89
2015-11-03T02:22:57.250Z,16.99
2015-11-03T02:23:09.578Z,17.27
2015-11-03T02:23:21.922Z,17.27
2015-11-03T02:23:34.253Z,17.27
2015-11-03T02:23:46.581Z,17.08
2015-11-03T02:23:58.925Z,17.47
2015-11-03T02:24:11.253Z,17.66
2015-11-03T02:24:23.628Z,17.47
2015-11-03T02:24:35.990Z,17.66
2015-11-03T02:24:47.646Z,17.66
2015-11-03T02:24:59.302Z,17.66
2015-11-03T02:25:11.615Z,17.66
2015-11-03T02:25:23.943Z,17.66
2015-11-03T02:25:36.289Z,17.37
2015-11-03T02:25:48.618Z,17.37
2015-11-03T02:26:00.946Z,17.56
2015-11-03T02:26:13.274Z,17.37
2015-11-03T02:26:25.618Z,17.56
2015-11-03T02:26:37.949Z,17.47
2015-11-03T02:26:50.308Z,17.37
2015-11-03T02:27:02.667Z,17.47
2015-11-03T02:27:15.042Z,17.56
2015-11-03T02:27:27.371Z,17.56
2015-11-03T02:27:39.702Z,17.37
2015-11-03T02:27:52.030Z,17.56
2015-11-03T02:28:04.358Z,17.56
2015-11-03T02:28:16.686Z,17.56
2015-11-03T02:28:29.014Z,17.37
2015-11-03T02:28:41.345Z,17.37
2015-11-03T02:28:53.673Z,17.47
2015-11-03T02:29:06.017Z,17.37
2015-11-03T02:29:18.361Z,17.66
2015-11-03T02:29:30.720Z,17.75
2015-11-03T02:29:43.082Z,17.56
2015-11-03T02:29:55.425Z,17.94
2015-11-03T02:30:07.754Z,17.56
2015-11-03T02:30:20.082Z,17.75
2015-11-03T02:30:32.394Z,17.66
2015-11-03T02:30:44.741Z,17.66
2015-11-03T02:30:57.069Z,17.66
2015-11-03T02:31:09.413Z,17.85
2015-11-03T02:31:21.757Z,17.75
2015-11-03T02:31:34.100Z,17.85
2015-11-03T02:31:46.447Z,17.56
2015-11-03T02:31:58.806Z,17.47
2015-11-03T02:32:11.135Z,17.47
2015-11-03T02:32:23.322Z,17.85
2015-11-03T02:32:34.931Z,17.66
2015-11-03T02:32:47.263Z,17.56
2015-11-03T02:32:59.606Z,17.47
2015-11-03T02:33:11.950Z,17.37
2015-11-03T02:33:24.309Z,17.37
2015-11-03T02:33:36.669Z,17.37
2015-11-03T02:33:49.031Z,17.56
2015-11-03T02:34:01.406Z,17.47
2015-11-03T02:34:13.734Z,17.37
2015-11-03T02:34:26.062Z,17.47
2015-11-03T02:34:37.687Z,17.37
2015-11-03T02:34:50.002Z,17.75
2015-11-03T02:35:02.346Z,17.75
2015-11-03T02:35:14.674Z,17.75
2015-11-03T02:35:27.002Z,17.94
2015-11-03T02:35:39.330Z,17.94
2015-11-03T02:35:51.677Z,17.75
2015-11-03T02:36:04.036Z,17.94
2015-11-03T02:36:16.396Z,17.75
2015-11-03T02:36:28.755Z,17.66
2015-11-03T02:36:41.083Z,17.75
2015-11-03T02:36:53.413Z,17.75
2015-11-03T02:37:05.804Z,17.66
2015-11-03T02:37:18.116Z,17.75
2015-11-03T02:37:30.444Z,17.75
2015-11-03T02:37:42.741Z,17.66
2015-11-03T02:37:55.073Z,17.66
2015-11-03T02:38:06.698Z,17.75
2015-11-03T02:38:19.027Z,17.85
2015-11-03T02:38:31.402Z,17.66
2015-11-03T02:38:43.761Z,18.04
2015-11-03T02:38:56.107Z,18.12
2015-11-03T02:39:08.435Z,18.04
2015-11-03T02:39:20.747Z,18.51
2015-11-03T02:39:33.075Z,18.41